Aeroporto :
LOGIN :

Iscrizione | Disclaimer

   EN    FR    IT 

 










Sommario :    VFR   VFR Marginale   IFR   IFR Intensivo   IFR Molto Intensivo
Visibilità : 
Base nubi : 
>= 8 km
>= 3000ft
5 / 8 km
1000 / 3000 ft
1500m / 5 km
500 / 1000 ft
800 / 1500m
200 / 500 ft
< 800m
< 200 ft
Simboli :   Temporali  Nebbia  Neve Forte  Precipitazioni Forti  Vento > 20 kt
SIGMETs :   Varie  Temporali  Ghiacco  Turbolenza  Onda orograficha  Ceneri Vulcaniche






- Altitudine del aeroporto : 11 ft
- Codice IATA : PVK


LGPZ - Aktion Lefkada Preveza

ULTIMO METAR :
  • 021320Z 25009KT 9999 FEW020 15/06 Q1013

METARs OBSOLETI :
  • 021250Z 24009KT 9999 FEW020 15/05 Q1013
  • 021220Z 24006KT 9999 FEW020 15/06 Q1013
  • 021150Z 21004KT 9999 FEW020 13/05 Q1013
  • 021120Z 25004KT 9999 FEW020 14/05 Q1013
  • 021050Z 25004KT 9999 FEW020 14/05 Q1013

TAF TAF LGPZ
Valido dal 02 a 12 ore il 03 a 12 ore UTC


021100Z 0212/0312 27010KT 9999 FEW025 SCT070
BECMG 0216/0218 09010KT
TEMPO 0303/0312 5000 RA SCT010 FEW018TCU BKN080



MetMap, La meteo Aeronautica in un colpo d'occhio ! - Copyright ORBIFLY Dicembre 2007 - Disclaimer

ORBIFLY MET'MAP TEAM :

Programmazione e sviluppo : Alexandra Zaïnal
Concezione : Baudouin d'Aumeries
Aiuto per la programmazione : Marc-Olivier Méhu
Supporto tecnico e logistico : Manuel Goepfert
Aiuto per la traduzione : Arnaldo La Scala

Contatto : metmap@orbifly.com




FONTI E CREDITI :

   NOAA